createdAt,value
2019-05-16T00:00:34.859Z,13.39
2019-05-16T00:01:40.909Z,13.38
2019-05-16T00:02:48.003Z,13.37
2019-05-16T00:03:53.423Z,13.36
2019-05-16T00:04:59.281Z,13.35
2019-05-16T00:06:05.282Z,13.33
2019-05-16T00:07:10.218Z,13.30
2019-05-16T00:08:17.850Z,13.29
2019-05-16T00:09:22.661Z,13.28
2019-05-16T00:10:28.363Z,13.26
2019-05-16T00:11:34.264Z,13.23
2019-05-16T00:12:40.189Z,13.24
2019-05-16T00:13:45.181Z,13.21
2019-05-16T00:14:51.156Z,13.20
2019-05-16T00:15:58.556Z,13.18
2019-05-16T00:17:03.502Z,13.17
2019-05-16T00:18:08.807Z,13.16
2019-05-16T00:19:14.584Z,13.15
2019-05-16T00:20:19.856Z,13.14
2019-05-16T00:21:25.354Z,13.13
2019-05-16T00:22:30.352Z,13.12
2019-05-16T00:23:37.807Z,13.12
2019-05-16T00:24:43.245Z,13.11
2019-05-16T00:25:49.122Z,13.11
2019-05-16T00:26:54.113Z,13.08
2019-05-16T00:27:59.926Z,13.08
2019-05-16T00:29:04.987Z,13.07
2019-05-16T00:30:11.008Z,13.04
2019-05-16T00:31:18.164Z,13.03
2019-05-16T00:32:23.184Z,13.01
2019-05-16T00:33:28.699Z,12.99
2019-05-16T00:34:34.283Z,12.97
2019-05-16T00:35:39.229Z,12.94
2019-05-16T00:36:44.853Z,12.93
2019-05-16T00:37:50.608Z,12.92
2019-05-16T00:38:57.848Z,12.90
2019-05-16T00:40:02.971Z,12.89
2019-05-16T00:41:08.667Z,12.88
2019-05-16T00:42:13.717Z,12.87
2019-05-16T00:43:19.190Z,12.86
2019-05-16T00:44:24.312Z,12.84
2019-05-16T00:45:48.692Z,12.81
2019-05-16T00:47:17.769Z,12.80
2019-05-16T00:48:23.388Z,12.78
2019-05-16T00:49:28.463Z,12.77
2019-05-16T00:50:34.223Z,12.76
2019-05-16T00:51:39.325Z,12.77
2019-05-16T00:52:44.935Z,12.76
2019-05-16T00:53:50.041Z,12.77
2019-05-16T00:54:57.836Z,12.78
2019-05-16T00:56:02.656Z,12.77
2019-05-16T00:57:08.730Z,12.77
2019-05-16T00:58:14.862Z,12.77
2019-05-16T00:59:21.705Z,12.78
2019-05-16T01:00:45.753Z,12.77
2019-05-16T01:01:51.234Z,12.76
2019-05-16T01:02:57.875Z,12.74
2019-05-16T01:04:03.839Z,12.73
2019-05-16T01:05:09.302Z,12.73
2019-05-16T01:06:19.940Z,12.73
2019-05-16T01:07:21.703Z,12.71
2019-05-16T01:08:28.108Z,12.71
2019-05-16T01:09:33.425Z,12.73
2019-05-16T01:10:40.406Z,12.73
2019-05-16T01:11:45.624Z,12.71
2019-05-16T01:12:51.273Z,12.71
2019-05-16T01:13:57.839Z,12.71
2019-05-16T01:15:03.739Z,12.71
2019-05-16T01:16:08.854Z,12.69
2019-05-16T01:17:15.058Z,12.68
2019-05-16T01:18:20.136Z,12.66
2019-05-16T01:19:27.692Z,12.65
2019-05-16T01:20:32.897Z,12.62
2019-05-16T01:21:39.079Z,12.62
2019-05-16T01:22:44.213Z,12.62
2019-05-16T01:23:49.713Z,12.61
2019-05-16T01:24:54.919Z,12.61
2019-05-16T01:26:00.496Z,12.61
2019-05-16T01:27:05.683Z,12.59
2019-05-16T01:28:11.314Z,12.61
2019-05-16T01:29:18.710Z,12.61
2019-05-16T01:30:23.676Z,12.61
2019-05-16T01:31:29.009Z,12.60
2019-05-16T01:32:34.473Z,12.59
2019-05-16T01:33:39.793Z,12.60
2019-05-16T01:34:45.323Z,12.58
2019-05-16T01:35:50.224Z,12.58
2019-05-16T01:36:55.766Z,12.58
2019-05-16T01:38:01.143Z,12.58
2019-05-16T01:39:07.989Z,12.57
2019-05-16T01:40:14.440Z,12.56
2019-05-16T01:41:20.092Z,12.54
2019-05-16T01:42:25.008Z,12.53
2019-05-16T01:43:31.578Z,12.51
2019-05-16T01:44:38.190Z,12.50
2019-05-16T01:45:43.800Z,12.50
2019-05-16T01:46:48.704Z,12.49
2019-05-16T01:47:54.236Z,12.49
2019-05-16T01:48:59.339Z,12.49
2019-05-16T01:50:05.851Z,12.49
2019-05-16T01:51:11.188Z,12.48
2019-05-16T01:52:17.856Z,12.47
2019-05-16T01:53:23.248Z,12.47
2019-05-16T01:54:28.670Z,12.45
2019-05-16T01:55:33.589Z,12.43
2019-05-16T01:56:39.044Z,12.43
2019-05-16T01:57:44.045Z,12.41
2019-05-16T01:58:49.591Z,12.40
2019-05-16T01:59:54.812Z,12.39
2019-05-16T02:01:11.561Z,12.37
2019-05-16T02:02:08.391Z,12.36
2019-05-16T02:03:14.161Z,12.34
2019-05-16T02:04:19.261Z,12.33
2019-05-16T02:05:24.879Z,12.32
2019-05-16T02:06:30.032Z,12.33
2019-05-16T02:07:35.499Z,12.32
2019-05-16T02:08:40.448Z,12.32
2019-05-16T02:09:47.673Z,12.32
2019-05-16T02:10:52.950Z,12.33
2019-05-16T02:11:59.012Z,12.33
2019-05-16T02:13:04.227Z,12.33
2019-05-16T02:14:09.709Z,12.35
2019-05-16T02:15:14.877Z,12.35
2019-05-16T02:16:20.481Z,12.37
2019-05-16T02:17:25.552Z,12.38
2019-05-16T02:18:31.094Z,12.37
2019-05-16T02:19:38.380Z,12.37
2019-05-16T02:20:43.763Z,12.37
2019-05-16T02:21:50.698Z,12.38
2019-05-16T02:22:55.931Z,12.37
2019-05-16T02:24:02.135Z,12.37
2019-05-16T02:25:08.618Z,12.36
2019-05-16T02:26:13.622Z,12.37
2019-05-16T02:27:19.285Z,12.38
2019-05-16T02:28:30.390Z,12.39
2019-05-16T02:29:31.833Z,12.40
2019-05-16T02:30:36.747Z,12.40
2019-05-16T02:31:42.478Z,12.39
2019-05-16T02:32:47.439Z,12.40
2019-05-16T02:33:52.906Z,12.42
2019-05-16T02:35:00.920Z,12.41
2019-05-16T02:36:05.255Z,12.41
2019-05-16T02:37:23.600Z,12.43
2019-05-16T02:38:20.879Z,12.44
2019-05-16T02:39:24.297Z,12.43
2019-05-16T02:40:31.276Z,12.43
2019-05-16T02:41:36.688Z,12.43
2019-05-16T02:42:42.639Z,12.43
2019-05-16T02:43:50.658Z,12.43
2019-05-16T02:44:55.335Z,12.43
2019-05-16T02:46:01.417Z,12.42
2019-05-16T02:47:10.621Z,12.41
2019-05-16T02:48:14.090Z,12.40
2019-05-16T02:49:21.682Z,12.39
2019-05-16T02:50:27.080Z,12.39
2019-05-16T02:51:32.536Z,12.39
2019-05-16T02:52:37.469Z,12.37
2019-05-16T02:53:43.317Z,12.36
2019-05-16T02:54:51.553Z,12.34
2019-05-16T02:55:55.658Z,12.33
2019-05-16T02:57:01.348Z,12.31
2019-05-16T02:58:07.281Z,12.31
2019-05-16T02:59:12.229Z,12.31
2019-05-16T03:00:22.389Z,12.30
2019-05-16T03:01:27.667Z,12.28
2019-05-16T03:02:33.200Z,12.30
2019-05-16T03:03:40.261Z,12.29
2019-05-16T03:04:46.298Z,12.29
2019-05-16T03:05:51.890Z,12.31
2019-05-16T03:07:00.697Z,12.32
2019-05-16T03:08:05.586Z,12.31
2019-05-16T03:09:11.751Z,12.32
2019-05-16T03:10:20.119Z,12.32
2019-05-16T03:11:26.244Z,12.33
2019-05-16T03:12:32.690Z,12.32
2019-05-16T03:13:42.243Z,12.33
2019-05-16T03:14:50.358Z,12.32
2019-05-16T03:16:00.645Z,12.33
2019-05-16T03:17:06.081Z,12.33
2019-05-16T03:18:13.496Z,12.33
2019-05-16T03:19:21.674Z,12.33
2019-05-16T03:20:31.473Z,12.33
2019-05-16T03:21:37.637Z,12.31
2019-05-16T03:22:45.598Z,12.31
2019-05-16T03:23:50.810Z,12.32
2019-05-16T03:24:56.513Z,12.35
2019-05-16T03:26:01.689Z,12.36
2019-05-16T03:27:07.235Z,12.39
2019-05-16T03:28:12.147Z,12.41
2019-05-16T03:29:17.612Z,12.42
2019-05-16T03:30:24.036Z,12.43
2019-05-16T03:31:34.033Z,12.43
2019-05-16T03:32:44.015Z,12.42
2019-05-16T03:33:56.276Z,12.43
2019-05-16T03:34:54.683Z,12.43
2019-05-16T03:36:04.778Z,12.43
2019-05-16T03:37:06.408Z,12.43
2019-05-16T03:38:12.423Z,12.43
2019-05-16T03:39:17.563Z,12.42
2019-05-16T03:40:26.912Z,12.43
2019-05-16T03:41:31.816Z,12.43
2019-05-16T03:42:37.299Z,12.42
2019-05-16T03:43:42.233Z,12.42
2019-05-16T03:44:51.044Z,12.42
2019-05-16T03:45:54.335Z,12.45
2019-05-16T03:47:01.016Z,12.46
2019-05-16T03:48:06.119Z,12.43
2019-05-16T03:49:11.658Z,12.44
2019-05-16T03:50:16.942Z,12.46
2019-05-16T03:51:22.512Z,12.45
2019-05-16T03:52:27.419Z,12.48
2019-05-16T03:53:32.968Z,12.49
2019-05-16T03:54:38.010Z,12.49
2019-05-16T03:55:43.526Z,12.49
2019-05-16T03:56:51.191Z,12.49
2019-05-16T03:57:55.672Z,12.48
2019-05-16T03:59:01.154Z,12.47
2019-05-16T04:00:07.128Z,12.48
2019-05-16T04:01:12.474Z,12.49
2019-05-16T04:02:17.930Z,12.50
2019-05-16T04:03:23.870Z,12.50
2019-05-16T04:04:31.101Z,12.51
2019-05-16T04:05:35.997Z,12.50
2019-05-16T04:06:41.979Z,12.50
2019-05-16T04:07:46.872Z,12.51
2019-05-16T04:08:52.595Z,12.52
2019-05-16T04:09:57.555Z,12.53
2019-05-16T04:11:03.075Z,12.54
2019-05-16T04:12:10.594Z,12.57
2019-05-16T04:13:15.508Z,12.58
2019-05-16T04:14:21.550Z,12.60
2019-05-16T04:15:27.227Z,12.59
2019-05-16T04:16:32.231Z,12.59
2019-05-16T04:17:40.856Z,12.59
2019-05-16T04:18:44.534Z,12.58
2019-05-16T04:19:50.966Z,12.58
2019-05-16T04:20:56.086Z,12.55
2019-05-16T04:22:01.887Z,12.54
2019-05-16T04:23:11.295Z,12.53
2019-05-16T04:24:16.906Z,12.52
2019-05-16T04:25:25.144Z,12.51
2019-05-16T04:26:33.635Z,12.51
2019-05-16T04:27:41.237Z,12.49
2019-05-16T04:28:44.996Z,12.49
2019-05-16T04:29:51.331Z,12.49
2019-05-16T04:30:57.301Z,12.49
2019-05-16T04:32:02.240Z,12.49
2019-05-16T04:33:10.794Z,12.49
2019-05-16T04:34:15.026Z,12.48
2019-05-16T04:35:21.474Z,12.49
2019-05-16T04:36:26.654Z,12.49
2019-05-16T04:37:32.202Z,12.48
2019-05-16T04:38:45.115Z,12.49
2019-05-16T04:39:44.510Z,12.50
2019-05-16T04:40:51.623Z,12.52
2019-05-16T04:41:56.828Z,12.52
2019-05-16T04:43:06.303Z,12.54
2019-05-16T04:44:12.112Z,12.53
2019-05-16T04:45:20.918Z,12.56
2019-05-16T04:46:24.815Z,12.57
2019-05-16T04:47:31.638Z,12.59
2019-05-16T04:48:37.227Z,12.60
2019-05-16T04:49:42.219Z,12.62
2019-05-16T04:50:51.203Z,12.64
2019-05-16T04:51:54.463Z,12.66
2019-05-16T04:53:01.373Z,12.68
2019-05-16T04:54:07.340Z,12.70
2019-05-16T04:55:13.847Z,12.71
2019-05-16T04:56:21.681Z,12.73
2019-05-16T04:57:26.730Z,12.75
2019-05-16T04:58:32.064Z,12.76
2019-05-16T04:59:41.861Z,12.75
2019-05-16T05:00:51.253Z,12.77
2019-05-16T05:01:55.073Z,12.77
2019-05-16T05:03:01.330Z,12.77
2019-05-16T05:04:14.019Z,12.78
2019-05-16T05:05:14.800Z,12.79
2019-05-16T05:06:20.784Z,12.78
2019-05-16T05:07:26.348Z,12.78
2019-05-16T05:08:48.688Z,12.78
2019-05-16T05:09:40.921Z,12.78
2019-05-16T05:10:45.715Z,12.79
2019-05-16T05:11:51.977Z,12.80
2019-05-16T05:12:57.716Z,12.78
2019-05-16T05:14:03.199Z,12.78
2019-05-16T05:15:11.489Z,12.80
2019-05-16T05:16:20.034Z,12.81
2019-05-16T05:17:25.161Z,12.84
2019-05-16T05:18:30.478Z,12.85
2019-05-16T05:19:36.580Z,12.87
2019-05-16T05:20:41.908Z,12.88
2019-05-16T05:21:47.422Z,12.90
2019-05-16T05:22:52.520Z,12.93
2019-05-16T05:24:00.088Z,12.96
2019-05-16T05:25:05.518Z,12.98
2019-05-16T05:26:11.179Z,13.00
2019-05-16T05:27:16.579Z,13.01
2019-05-16T05:28:22.287Z,13.00
2019-05-16T05:29:27.371Z,13.00
2019-05-16T05:30:33.317Z,12.99
2019-05-16T05:31:46.454Z,13.00
2019-05-16T05:32:52.350Z,12.99
2019-05-16T05:34:00.715Z,12.98
2019-05-16T05:35:04.986Z,12.97
2019-05-16T05:36:12.409Z,12.98
2019-05-16T05:37:20.251Z,13.00
2019-05-16T05:38:24.516Z,13.01
2019-05-16T05:39:30.427Z,13.04
2019-05-16T05:40:35.615Z,13.05
2019-05-16T05:41:41.099Z,13.06
2019-05-16T05:42:46.096Z,13.06
2019-05-16T05:43:54.448Z,13.05
2019-05-16T05:45:00.291Z,13.07
2019-05-16T05:46:06.208Z,13.10
2019-05-16T05:47:11.220Z,13.12
2019-05-16T05:48:16.780Z,13.13
2019-05-16T05:49:21.949Z,13.14
2019-05-16T05:50:27.734Z,13.15
2019-05-16T05:51:32.798Z,13.17
2019-05-16T05:52:41.126Z,13.20
2019-05-16T05:53:45.807Z,13.20
2019-05-16T05:54:51.535Z,13.21
2019-05-16T05:55:56.538Z,13.22
2019-05-16T05:57:02.109Z,13.25
2019-05-16T05:58:07.116Z,13.26
2019-05-16T05:59:13.251Z,13.30
2019-05-16T06:00:21.069Z,13.32
2019-05-16T06:01:26.150Z,13.35
2019-05-16T06:02:31.193Z,13.37
2019-05-16T06:03:36.699Z,13.39
2019-05-16T06:04:41.660Z,13.42
2019-05-16T06:05:50.264Z,13.42
2019-05-16T06:06:54.556Z,13.43
2019-05-16T06:08:00.420Z,13.43
2019-05-16T06:09:06.282Z,13.45
2019-05-16T06:10:12.392Z,13.45
2019-05-16T06:11:17.352Z,13.45
2019-05-16T06:12:22.919Z,13.45
2019-05-16T06:13:27.919Z,13.45
2019-05-16T06:14:33.511Z,13.45
2019-05-16T06:15:40.008Z,13.42
2019-05-16T06:16:45.572Z,13.41
2019-05-16T06:17:51.025Z,13.40
2019-05-16T06:18:56.874Z,13.37
2019-05-16T06:20:01.966Z,13.36
2019-05-16T06:21:07.484Z,13.37
2019-05-16T06:22:12.552Z,13.36
2019-05-16T06:23:20.778Z,13.38
2019-05-16T06:24:25.389Z,13.39
2019-05-16T06:25:31.699Z,13.42
2019-05-16T06:26:37.176Z,13.42
2019-05-16T06:27:42.833Z,13.42
2019-05-16T06:28:50.419Z,13.46
2019-05-16T06:29:57.363Z,13.48
2019-05-16T06:31:02.719Z,13.50
2019-05-16T06:32:10.297Z,13.54
2019-05-16T06:33:16.693Z,13.56
2019-05-16T06:34:22.528Z,13.60
2019-05-16T06:35:29.744Z,13.60
2019-05-16T06:36:34.764Z,13.62
2019-05-16T06:37:40.648Z,13.64
2019-05-16T06:38:46.660Z,13.65
2019-05-16T06:39:51.694Z,13.66
2019-05-16T06:41:00.064Z,13.69
2019-05-16T06:42:04.331Z,13.75
2019-05-16T06:43:10.944Z,13.79
2019-05-16T06:44:16.268Z,13.84
2019-05-16T06:45:21.866Z,13.91
2019-05-16T06:46:26.792Z,13.96
2019-05-16T06:47:32.352Z,14.02
2019-05-16T06:48:39.683Z,14.10
2019-05-16T06:49:44.938Z,14.18
2019-05-16T06:50:51.877Z,14.22
2019-05-16T06:51:59.552Z,14.27
2019-05-16T06:53:04.247Z,14.29
2019-05-16T06:54:10.145Z,14.30
2019-05-16T06:55:14.963Z,14.31
2019-05-16T06:56:20.793Z,14.32
2019-05-16T06:57:43.859Z,14.35
2019-05-16T06:58:51.811Z,14.39
2019-05-16T06:59:55.821Z,14.42
2019-05-16T07:01:03.506Z,14.45
2019-05-16T07:02:10.874Z,14.49
2019-05-16T07:03:15.546Z,14.53
2019-05-16T07:04:20.611Z,14.56
2019-05-16T07:05:26.083Z,14.60
2019-05-16T07:06:51.868Z,14.64
2019-05-16T07:07:40.502Z,14.67
2019-05-16T07:08:45.130Z,14.71
2019-05-16T07:09:59.958Z,14.75
2019-05-16T07:10:59.949Z,14.79
2019-05-16T07:12:05.430Z,14.85
2019-05-16T07:13:10.520Z,14.87
2019-05-16T07:14:16.050Z,14.93
2019-05-16T07:15:21.327Z,14.98
2019-05-16T07:16:26.787Z,14.99
2019-05-16T07:17:31.849Z,15.02
2019-05-16T07:18:39.601Z,15.05
2019-05-16T07:19:44.041Z,15.08
2019-05-16T07:20:51.057Z,15.09
2019-05-16T07:21:56.571Z,15.11
2019-05-16T07:23:02.119Z,15.12
2019-05-16T07:24:07.428Z,15.11
2019-05-16T07:25:13.677Z,15.10
2019-05-16T07:26:20.486Z,15.09
2019-05-16T07:27:26.319Z,15.08
2019-05-16T07:28:31.482Z,15.09
2019-05-16T07:29:37.094Z,15.07
2019-05-16T07:30:42.335Z,15.06
2019-05-16T07:31:48.181Z,15.05
2019-05-16T07:32:53.443Z,15.04
2019-05-16T07:34:00.887Z,15.04
2019-05-16T07:35:09.620Z,15.01
2019-05-16T07:36:15.989Z,15.00
2019-05-16T07:37:21.373Z,15.00
2019-05-16T07:38:26.903Z,15.00
2019-05-16T07:39:31.964Z,15.02
2019-05-16T07:40:39.935Z,15.03
2019-05-16T07:41:44.077Z,15.04
2019-05-16T07:42:51.007Z,15.05
2019-05-16T07:43:56.354Z,15.06
2019-05-16T07:45:02.269Z,15.07
2019-05-16T07:46:07.684Z,15.09
2019-05-16T07:47:13.302Z,15.12
2019-05-16T07:48:21.634Z,15.09
2019-05-16T07:49:26.021Z,15.08
2019-05-16T07:50:31.522Z,15.08
2019-05-16T07:51:37.133Z,15.11
2019-05-16T07:52:42.527Z,15.13
2019-05-16T07:53:50.404Z,15.13
2019-05-16T07:54:55.766Z,15.14
2019-05-16T07:56:01.616Z,15.15
2019-05-16T07:57:18.524Z,15.13
2019-05-16T07:58:14.069Z,15.10
2019-05-16T07:59:20.445Z,15.08
2019-05-16T08:00:45.890Z,15.06
2019-05-16T08:01:33.084Z,15.07
2019-05-16T08:02:40.289Z,15.09
2019-05-16T08:03:45.560Z,15.11
2019-05-16T08:04:51.191Z,15.10
2019-05-16T08:05:56.579Z,15.09
2019-05-16T08:07:05.636Z,15.10
2019-05-16T08:08:10.506Z,15.10
2019-05-16T08:09:16.756Z,15.09
2019-05-16T08:10:36.919Z,15.10
2019-05-16T08:11:30.411Z,15.10
2019-05-16T08:12:36.052Z,15.13
2019-05-16T08:13:41.749Z,15.11
2019-05-16T08:14:49.867Z,15.13
2019-05-16T08:15:54.516Z,15.15
2019-05-16T08:17:01.088Z,15.16
2019-05-16T08:18:06.994Z,15.17
2019-05-16T08:19:11.979Z,15.19
2019-05-16T08:20:17.646Z,15.19
2019-05-16T08:21:27.485Z,15.18
2019-05-16T08:22:30.886Z,15.17
2019-05-16T08:23:36.065Z,15.15
2019-05-16T08:24:41.951Z,15.10
2019-05-16T08:25:46.923Z,15.07
2019-05-16T08:26:52.400Z,15.06
2019-05-16T08:28:00.570Z,15.04
2019-05-16T08:29:04.876Z,15.05
2019-05-16T08:30:11.207Z,15.04
2019-05-16T08:31:16.737Z,15.02
2019-05-16T08:32:22.917Z,15.01
2019-05-16T08:33:31.981Z,15.00
2019-05-16T08:34:35.823Z,15.00
2019-05-16T08:35:41.563Z,14.99
2019-05-16T08:36:46.569Z,14.98
2019-05-16T08:37:52.416Z,14.98
2019-05-16T08:39:00.895Z,14.95
2019-05-16T08:40:05.107Z,14.94
2019-05-16T08:42:20.598Z,14.92
2019-05-16T08:43:25.996Z,14.91
2019-05-16T08:44:32.626Z,14.90
2019-05-16T08:45:41.563Z,14.88
2019-05-16T08:46:49.440Z,14.87
2019-05-16T08:47:52.695Z,14.87
2019-05-16T08:49:01.178Z,14.85
2019-05-16T08:50:11.607Z,14.93
2019-05-16T08:50:13.684Z,14.83
2019-05-16T08:51:15.002Z,14.81
2019-05-16T08:52:22.444Z,14.82
2019-05-16T08:53:31.305Z,14.79
2019-05-16T08:54:34.346Z,14.79
2019-05-16T08:55:43.292Z,14.80
2019-05-16T08:56:50.781Z,14.81
2019-05-16T08:57:55.093Z,14.81
2019-05-16T08:59:02.701Z,14.81
2019-05-16T09:00:14.741Z,14.81
2019-05-16T09:01:16.137Z,14.83
2019-05-16T09:03:32.064Z,14.87
2019-05-16T09:04:35.872Z,14.88
2019-05-16T09:06:48.053Z,14.85
2019-05-16T09:08:00.433Z,14.84
2019-05-16T09:09:15.641Z,14.84
2019-05-16T09:10:26.102Z,14.88
2019-05-16T09:10:31.976Z,14.84
2019-05-16T09:10:40.777Z,14.81
2019-05-16T09:11:33.863Z,14.78
2019-05-16T09:12:21.994Z,14.75
2019-05-16T09:13:28.016Z,14.74
2019-05-16T09:14:38.819Z,14.69
2019-05-16T09:15:40.320Z,14.66
2019-05-16T09:16:47.724Z,14.67
2019-05-16T09:17:52.647Z,14.68
2019-05-16T09:18:57.952Z,14.70
2019-05-16T09:20:04.006Z,14.73
2019-05-16T09:21:09.329Z,14.74
2019-05-16T09:22:17.899Z,14.76
2019-05-16T09:23:22.060Z,14.77
2019-05-16T09:24:29.062Z,14.81
2019-05-16T09:25:36.816Z,14.86
2019-05-16T09:26:41.359Z,14.90
2019-05-16T09:27:47.150Z,14.97
2019-05-16T09:28:53.351Z,15.00
2019-05-16T09:29:58.400Z,15.05
2019-05-16T09:31:06.845Z,15.11
2019-05-16T09:32:16.863Z,15.18
2019-05-16T09:33:18.340Z,15.25
2019-05-16T09:34:23.390Z,15.32
2019-05-16T09:35:28.961Z,15.41
2019-05-16T09:36:33.854Z,15.47
2019-05-16T09:37:39.406Z,15.53
2019-05-16T09:38:44.425Z,15.59
2019-05-16T09:39:50.210Z,15.60
2019-05-16T09:40:57.008Z,15.66
2019-05-16T09:42:02.903Z,15.68
2019-05-16T09:43:08.188Z,15.73
2019-05-16T09:44:13.847Z,15.77
2019-05-16T09:45:19.254Z,15.79
2019-05-16T09:46:27.406Z,15.79
2019-05-16T09:47:31.493Z,15.78
2019-05-16T09:48:38.148Z,15.75
2019-05-16T09:49:43.422Z,15.73
2019-05-16T09:50:49.508Z,15.73
2019-05-16T09:51:56.733Z,15.73
2019-05-16T09:53:02.221Z,15.75
2019-05-16T09:54:07.620Z,15.78
2019-05-16T09:55:13.394Z,15.80
2019-05-16T09:56:18.495Z,15.82
2019-05-16T09:57:24.053Z,15.82
2019-05-16T09:58:29.055Z,15.85
2019-05-16T09:59:36.947Z,15.88
2019-05-16T10:00:41.918Z,15.89
2019-05-16T10:01:48.003Z,15.87
2019-05-16T10:02:53.284Z,15.89
2019-05-16T10:03:59.102Z,15.91
2019-05-16T10:05:05.056Z,15.94
2019-05-16T10:06:12.161Z,15.94
2019-05-16T10:07:17.805Z,15.91
2019-05-16T10:08:23.703Z,15.91
2019-05-16T10:09:41.385Z,15.94
2019-05-16T10:10:36.974Z,15.94
2019-05-16T10:11:42.969Z,15.96
2019-05-16T10:12:48.541Z,16.02
2019-05-16T10:13:53.729Z,16.08
2019-05-16T10:14:59.897Z,16.16
2019-05-16T10:16:07.211Z,16.21
2019-05-16T10:17:12.942Z,16.25
2019-05-16T10:18:17.920Z,16.25
2019-05-16T10:19:23.703Z,16.24
2019-05-16T10:20:28.700Z,16.24
2019-05-16T10:21:37.176Z,16.23
2019-05-16T10:22:41.473Z,16.22
2019-05-16T10:23:47.337Z,16.18
2019-05-16T10:24:52.397Z,16.16
2019-05-16T10:25:57.925Z,16.13
2019-05-16T10:27:02.905Z,16.10
2019-05-16T10:28:08.514Z,16.08
2019-05-16T10:29:13.637Z,16.08
2019-05-16T10:30:19.890Z,16.09
2019-05-16T10:31:41.042Z,16.11
2019-05-16T10:32:32.985Z,16.13
2019-05-16T10:33:39.074Z,16.18
2019-05-16T10:34:46.700Z,16.22
2019-05-16T10:35:51.789Z,16.27
2019-05-16T10:36:57.711Z,16.34
2019-05-16T10:38:02.847Z,16.37
2019-05-16T10:39:08.787Z,16.40
2019-05-16T10:40:18.244Z,16.44
2019-05-16T10:41:24.970Z,16.47
2019-05-16T10:42:29.975Z,16.51
2019-05-16T10:43:37.059Z,16.53
2019-05-16T10:44:42.241Z,16.55
2019-05-16T10:45:47.820Z,16.60
2019-05-16T10:46:53.108Z,16.67
2019-05-16T10:47:58.590Z,16.74
2019-05-16T10:49:03.650Z,16.80
2019-05-16T10:50:09.772Z,16.85
2019-05-16T10:51:17.030Z,16.93
2019-05-16T10:52:22.359Z,16.99
2019-05-16T10:53:57.137Z,17.03
2019-05-16T10:54:36.916Z,17.05
2019-05-16T10:55:41.965Z,17.10
2019-05-16T10:56:47.645Z,17.17
2019-05-16T10:57:53.002Z,17.26
2019-05-16T10:59:46.159Z,17.33
2019-05-16T11:00:18.103Z,17.39
2019-05-16T11:01:27.151Z,17.41
2019-05-16T11:02:21.150Z,17.46
2019-05-16T11:03:27.676Z,17.50
2019-05-16T11:04:52.917Z,17.56
2019-05-16T11:05:40.859Z,17.60
2019-05-16T11:06:46.589Z,17.66
2019-05-16T11:07:53.339Z,17.67
2019-05-16T11:08:58.650Z,17.68
2019-05-16T11:10:07.117Z,17.69
2019-05-16T11:11:12.480Z,17.68
2019-05-16T11:12:20.491Z,17.64
2019-05-16T11:13:24.601Z,17.63
2019-05-16T11:14:30.141Z,17.60
2019-05-16T11:15:37.303Z,17.60
2019-05-16T11:16:42.918Z,17.60
2019-05-16T11:17:48.059Z,17.59
2019-05-16T11:18:53.991Z,17.58
2019-05-16T11:19:59.148Z,17.56
2019-05-16T11:21:04.894Z,17.57
2019-05-16T11:22:09.821Z,17.55
2019-05-16T11:23:22.275Z,17.55
2019-05-16T11:24:22.319Z,17.51
2019-05-16T11:25:31.832Z,17.49
2019-05-16T11:26:36.748Z,17.50
2019-05-16T11:27:42.018Z,17.53
2019-05-16T11:28:48.798Z,17.58
2019-05-16T11:29:56.638Z,17.61
2019-05-16T11:31:07.024Z,17.64
2019-05-16T11:32:08.649Z,17.66
2019-05-16T11:33:13.762Z,17.67
2019-05-16T11:34:19.368Z,17.65
2019-05-16T11:35:26.997Z,17.61
2019-05-16T11:36:31.825Z,17.57
2019-05-16T11:37:37.723Z,17.53
2019-05-16T11:38:43.358Z,17.49
2019-05-16T11:39:48.422Z,17.41
2019-05-16T11:40:56.659Z,17.36
2019-05-16T11:42:00.593Z,17.31
2019-05-16T11:43:14.691Z,17.27
2019-05-16T11:44:12.917Z,17.25
2019-05-16T11:45:18.810Z,17.21
2019-05-16T11:46:23.876Z,17.23
2019-05-16T11:47:29.493Z,17.28
2019-05-16T11:48:37.414Z,17.35
2019-05-16T11:49:42.112Z,17.44
2019-05-16T11:50:48.121Z,17.52
2019-05-16T11:51:53.827Z,17.64
2019-05-16T11:52:59.375Z,17.77
2019-05-16T11:54:06.893Z,17.88
2019-05-16T11:55:12.679Z,18.00
2019-05-16T11:56:18.241Z,18.08
2019-05-16T11:57:23.860Z,18.16
2019-05-16T11:58:29.510Z,18.24
2019-05-16T11:59:37.163Z,18.32
2019-05-16T12:00:41.919Z,18.37
2019-05-16T12:01:47.609Z,18.40
2019-05-16T12:02:53.579Z,18.42
2019-05-16T12:03:58.476Z,18.44
2019-05-16T12:05:04.028Z,18.47
2019-05-16T12:06:11.161Z,18.53
2019-05-16T12:07:18.965Z,18.58
2019-05-16T12:08:23.679Z,18.62
2019-05-16T12:09:33.705Z,18.65
2019-05-16T12:10:36.380Z,18.68
2019-05-16T12:11:42.086Z,18.69
2019-05-16T12:12:47.017Z,18.71
2019-05-16T12:13:52.521Z,18.73
2019-05-16T12:14:58.456Z,18.75
2019-05-16T12:16:04.061Z,18.76
2019-05-16T12:17:09.039Z,18.77
2019-05-16T12:18:17.108Z,18.78
2019-05-16T12:19:21.673Z,18.83
2019-05-16T12:20:27.548Z,18.85
2019-05-16T12:21:32.525Z,18.86
2019-05-16T12:22:38.426Z,18.87
2019-05-16T12:23:43.435Z,18.91
2019-05-16T12:24:49.000Z,18.95
2019-05-16T12:25:54.036Z,18.97
2019-05-16T12:27:00.774Z,18.98
2019-05-16T12:28:08.100Z,19.01
2019-05-16T12:29:13.507Z,19.05
2019-05-16T12:30:18.922Z,19.09
2019-05-16T12:31:24.792Z,19.11
2019-05-16T12:32:29.796Z,19.12
2019-05-16T12:33:37.512Z,19.15
2019-05-16T12:34:42.847Z,19.16
2019-05-16T12:35:48.379Z,19.16
2019-05-16T12:36:53.283Z,19.15
2019-05-16T12:37:58.754Z,19.15
2019-05-16T12:39:04.903Z,19.16
2019-05-16T12:40:10.556Z,19.12
2019-05-16T12:41:15.650Z,19.10
2019-05-16T12:42:21.430Z,19.09
2019-05-16T12:43:44.206Z,19.10
2019-05-16T12:44:33.919Z,19.11
2019-05-16T12:45:39.015Z,19.11
2019-05-16T12:46:47.251Z,19.12
2019-05-16T12:47:51.387Z,19.14
2019-05-16T12:48:57.544Z,19.16
2019-05-16T12:50:02.752Z,19.19
2019-05-16T12:51:09.150Z,19.22
2019-05-16T12:52:14.174Z,19.24
2019-05-16T12:53:23.493Z,19.27
2019-05-16T12:54:27.606Z,19.25
2019-05-16T12:55:33.468Z,19.27
2019-05-16T12:56:38.459Z,19.28
2019-05-16T12:57:44.013Z,19.29
2019-05-16T12:58:50.877Z,19.28
2019-05-16T12:59:57.055Z,19.29
2019-05-16T13:01:02.198Z,19.33
2019-05-16T13:02:07.924Z,19.36
2019-05-16T13:03:12.991Z,19.38
2019-05-16T13:04:19.453Z,19.40
2019-05-16T13:05:26.739Z,19.40
2019-05-16T13:06:31.821Z,19.41
2019-05-16T13:07:37.686Z,19.43
2019-05-16T13:08:43.556Z,19.44
2019-05-16T13:09:50.282Z,19.42
2019-05-16T13:10:57.788Z,19.40
2019-05-16T13:12:02.968Z,19.41
2019-05-16T13:13:08.567Z,19.41
2019-05-16T13:14:13.606Z,19.39
2019-05-16T13:15:19.566Z,19.37
2019-05-16T13:16:24.549Z,19.36
2019-05-16T13:17:30.090Z,19.33
2019-05-16T13:18:36.978Z,19.30
2019-05-16T13:19:44.521Z,19.28
2019-05-16T13:20:49.374Z,19.28
2019-05-16T13:21:57.617Z,19.25
2019-05-16T13:23:01.980Z,19.23
2019-05-16T13:24:07.951Z,19.25
2019-05-16T13:25:13.511Z,19.25
2019-05-16T13:26:18.990Z,19.27
2019-05-16T13:27:24.336Z,19.26
2019-05-16T13:28:30.275Z,19.27
2019-05-16T13:29:37.081Z,19.26
2019-05-16T13:30:42.903Z,19.28
2019-05-16T13:31:48.592Z,19.30
2019-05-16T13:32:56.430Z,19.31
2019-05-16T13:34:00.883Z,19.31
2019-05-16T13:35:07.738Z,19.32
2019-05-16T13:36:12.908Z,19.32
2019-05-16T13:37:18.574Z,19.33
2019-05-16T13:38:23.892Z,19.34
2019-05-16T13:39:29.476Z,19.38
2019-05-16T13:40:34.529Z,19.41
2019-05-16T13:41:40.327Z,19.43
2019-05-16T13:42:47.751Z,19.43
2019-05-16T13:43:52.601Z,19.39
2019-05-16T13:44:58.033Z,19.35
2019-05-16T13:46:06.848Z,19.33
2019-05-16T13:47:10.706Z,19.30
2019-05-16T13:48:17.218Z,19.29
2019-05-16T13:49:22.414Z,19.28
2019-05-16T13:50:28.034Z,19.28
2019-05-16T13:51:32.943Z,19.28
2019-05-16T13:52:38.565Z,19.29
2019-05-16T13:53:43.686Z,19.29
2019-05-16T13:54:49.538Z,19.29
2019-05-16T13:55:54.831Z,19.27
2019-05-16T13:57:00.361Z,19.23
2019-05-16T13:58:07.656Z,19.18
2019-05-16T13:59:13.470Z,19.13
2019-05-16T14:00:18.831Z,19.08
2019-05-16T14:01:24.605Z,19.04
2019-05-16T14:02:31.378Z,19.01
2019-05-16T14:03:37.514Z,18.97
2019-05-16T14:04:42.648Z,18.91
2019-05-16T14:05:48.496Z,18.87
2019-05-16T14:06:58.101Z,18.82
2019-05-16T14:08:01.563Z,18.79
2019-05-16T14:09:07.725Z,18.79
2019-05-16T14:10:13.438Z,18.79
2019-05-16T14:11:18.746Z,18.81